Time;durP1;ratioP1;P1;durP2;ratioP2;P2;SDS_P1;SDS_P2;PMS_P1;PMS_P2;Temp;Humidity;BMP_temperature;BMP_pressure;BME280_temperature;BME280_humidity;BME280_pressure;Samples;Min_cycle;Max_cycle;Signal;HPM_P1;HPM_P2
2023/09/22 00:02:00;;;;;;;2.30;1.80;;;14.30;99.90;;;;;;4993799;28;20041;-83
2023/09/22 00:04:26;;;;;;;4.75;1.98;;;14.30;99.90;;;;;;4992052;28;20077;-83
2023/09/22 00:06:51;;;;;;;3.80;2.58;;;14.30;99.90;;;;;;4978413;28;20123;-83
2023/09/22 00:09:17;;;;;;;2.60;1.73;;;14.30;99.90;;;;;;4976123;28;20153;-83
2023/09/22 00:11:42;;;;;;;6.28;2.00;;;14.30;99.90;;;;;;4994454;28;20516;-84
2023/09/22 00:14:08;;;;;;;4.53;1.88;;;14.30;99.90;;;;;;4977441;28;20041;-84
2023/09/22 00:16:34;;;;;;;3.58;2.28;;;14.30;99.90;;;;;;4994277;28;20038;-84
2023/09/22 00:19:04;;;;;;;3.38;2.08;;;14.30;99.90;;;;;;4978412;28;20037;-85
2023/09/22 00:21:33;;;;;;;3.05;2.10;;;14.30;99.90;;;;;;4994169;28;20061;-84
2023/09/22 00:23:58;;;;;;;4.35;2.05;;;14.30;99.90;;;;;;4993533;28;20041;-83
2023/09/22 00:26:25;;;;;;;4.15;2.33;;;14.30;99.90;;;;;;4990077;28;20444;-83
2023/09/22 00:28:50;;;;;;;3.35;2.10;;;14.30;99.90;;;;;;4995186;28;20100;-85
2023/09/22 00:31:16;;;;;;;3.55;2.60;;;14.30;99.90;;;;;;4994006;28;20038;-84
2023/09/22 00:33:41;;;;;;;4.28;3.15;;;14.30;99.90;;;;;;4991130;28;20125;-84
2023/09/22 00:36:07;;;;;;;4.63;3.15;;;14.30;99.90;;;;;;4977219;28;20048;-83
2023/09/22 00:38:32;;;;;;;5.70;2.95;;;14.30;99.90;;;;;;4994364;28;20121;-83
2023/09/22 00:40:58;;;;;;;4.10;3.00;;;14.30;99.90;;;;;;4986965;28;20069;-83
2023/09/22 00:43:23;;;;;;;4.20;3.15;;;14.30;99.90;;;;;;4985804;28;20054;-83
2023/09/22 00:45:52;;;;;;;5.47;3.45;;;14.30;99.90;;;;;;4987096;28;20042;-84
2023/09/22 00:48:27;;;;;;;5.18;3.92;;;14.30;99.90;;;;;;4998704;28;20115;-83
2023/09/22 00:50:55;;;;;;;7.38;4.20;;;14.30;99.90;;;;;;4991354;28;20547;-84
2023/09/22 00:53:25;;;;;;;6.25;4.53;;;14.30;99.90;;;;;;4993208;28;20092;-84
2023/09/22 00:55:52;;;;;;;6.78;5.22;;;14.30;99.90;;;;;;4992783;28;20456;-84
2023/09/22 00:58:18;;;;;;;6.38;5.05;;;14.20;99.90;;;;;;4994919;28;20038;-83
2023/09/22 01:00:49;;;;;;;8.93;6.35;;;14.20;99.90;;;;;;5011607;28;20042;-84
2023/09/22 01:03:15;;;;;;;8.80;6.38;;;14.20;99.90;;;;;;4988150;28;20045;-84
2023/09/22 01:05:41;;;;;;;9.30;6.65;;;14.20;99.90;;;;;;4989506;28;20476;-84
2023/09/22 01:08:07;;;;;;;9.05;7.30;;;14.20;99.90;;;;;;4992718;28;20038;-83
2023/09/22 01:10:36;;;;;;;9.82;7.60;;;14.10;99.90;;;;;;4989424;28;20080;-83
2023/09/22 01:13:04;;;;;;;10.73;6.90;;;14.20;99.90;;;;;;4991322;28;20456;-84
2023/09/22 01:15:32;;;;;;;11.80;7.93;;;14.20;99.90;;;;;;4977769;28;20128;-83
2023/09/22 01:17:57;;;;;;;10.00;6.93;;;14.20;99.90;;;;;;4985058;28;20405;-83
2023/09/22 01:20:23;;;;;;;10.82;8.02;;;14.10;99.90;;;;;;4993623;28;20041;-82
2023/09/22 01:22:48;;;;;;;12.13;8.27;;;14.20;99.90;;;;;;4994054;28;20517;-83
2023/09/22 01:25:14;;;;;;;14.35;9.70;;;14.10;99.90;;;;;;4980897;28;20042;-83
2023/09/22 01:27:40;;;;;;;14.05;9.10;;;14.10;99.90;;;;;;4995602;28;20224;-84
2023/09/22 01:30:07;;;;;;;11.95;9.00;;;14.10;99.90;;;;;;4981401;28;20062;-83
2023/09/22 01:32:38;;;;;;;11.65;9.23;;;14.10;99.90;;;;;;4995963;28;20744;-83
2023/09/22 01:35:07;;;;;;;15.02;10.45;;;14.10;99.90;;;;;;4995466;28;20030;-83
2023/09/22 01:37:37;;;;;;;13.93;9.52;;;14.10;99.90;;;;;;4997639;28;20120;-84
2023/09/22 01:40:03;;;;;;;12.65;9.95;;;14.10;99.90;;;;;;4994656;28;20070;-84
2023/09/22 01:42:28;;;;;;;14.73;10.57;;;14.10;99.90;;;;;;4996014;28;20050;-83
2023/09/22 01:44:54;;;;;;;15.60;10.77;;;14.20;99.90;;;;;;4995635;28;20084;-83
2023/09/22 01:47:19;;;;;;;13.35;10.50;;;14.20;99.90;;;;;;4995554;28;20053;-84
2023/09/22 01:49:45;;;;;;;16.05;11.40;;;14.20;99.90;;;;;;4996179;28;20509;-83
2023/09/22 01:52:11;;;;;;;15.55;11.85;;;14.20;99.90;;;;;;4980632;28;20128;-84
2023/09/22 01:54:36;;;;;;;16.02;12.38;;;14.20;99.90;;;;;;4996171;28;20497;-83
2023/09/22 01:57:03;;;;;;;17.20;13.10;;;14.20;99.90;;;;;;4996594;28;20072;-83
2023/09/22 01:59:29;;;;;;;19.92;13.27;;;14.20;99.90;;;;;;4997267;28;20529;-83
2023/09/22 02:01:54;;;;;;;17.90;12.70;;;14.30;99.90;;;;;;4996936;28;20081;-83
2023/09/22 02:04:19;;;;;;;18.88;13.25;;;14.30;99.90;;;;;;4997267;28;20107;-84
2023/09/22 02:06:45;;;;;;;19.35;14.57;;;14.20;99.90;;;;;;4995397;28;20550;-83
2023/09/22 02:09:10;;;;;;;19.40;14.68;;;14.30;99.90;;;;;;4995509;28;20091;-82
2023/09/22 02:11:37;;;;;;;21.30;15.07;;;14.30;99.90;;;;;;4997004;28;20040;-83
2023/09/22 02:14:03;;;;;;;19.45;14.65;;;14.30;99.90;;;;;;4979789;28;20034;-83
2023/09/22 02:16:29;;;;;;;20.17;16.52;;;14.30;99.90;;;;;;4979049;28;20045;-83
2023/09/22 02:18:56;;;;;;;21.40;15.93;;;14.30;99.90;;;;;;4994947;28;20397;-83
2023/09/22 02:21:22;;;;;;;23.48;16.35;;;14.30;99.90;;;;;;4996973;28;20037;-83
2023/09/22 02:23:48;;;;;;;21.13;15.85;;;14.30;99.90;;;;;;4995829;28;20042;-84
2023/09/22 02:26:13;;;;;;;21.52;16.67;;;14.30;99.90;;;;;;4981049;28;20432;-82
2023/09/22 02:28:39;;;;;;;22.48;16.55;;;14.30;99.90;;;;;;4995175;28;20081;-83
2023/09/22 02:31:04;;;;;;;23.98;16.65;;;14.30;99.90;;;;;;4997829;28;20049;-82
2023/09/22 02:33:30;;;;;;;23.95;17.38;;;14.30;99.90;;;;;;4997109;28;20044;-83
2023/09/22 02:35:56;;;;;;;23.55;17.90;;;14.30;99.90;;;;;;4995797;28;20065;-81
2023/09/22 02:38:21;;;;;;;23.90;17.38;;;14.30;99.90;;;;;;4995684;28;20062;-84
2023/09/22 02:40:47;;;;;;;26.92;18.33;;;14.30;99.90;;;;;;4995753;28;20121;-83
2023/09/22 02:43:13;;;;;;;22.42;17.42;;;14.30;99.90;;;;;;4995793;28;20042;-82
2023/09/22 02:45:39;;;;;;;24.30;16.88;;;14.30;99.90;;;;;;4995168;28;20044;-82
2023/09/22 02:48:08;;;;;;;22.10;16.45;;;14.30;99.90;;;;;;4988794;28;20519;-83
2023/09/22 02:50:34;;;;;;;24.60;17.55;;;14.30;99.90;;;;;;4996488;28;20046;-82
2023/09/22 02:53:03;;;;;;;25.20;17.90;;;14.30;99.90;;;;;;4995341;28;20116;-82
2023/09/22 02:55:38;;;;;;;24.88;17.70;;;14.30;99.90;;;;;;4994256;28;20505;-82
2023/09/22 02:58:04;;;;;;;25.50;17.60;;;14.20;99.90;;;;;;4987581;28;20052;-82
2023/09/22 03:00:30;;;;;;;26.25;16.95;;;14.20;99.90;;;;;;4996706;28;20049;-82
2023/09/22 03:02:56;;;;;;;26.85;17.90;;;14.20;99.90;;;;;;4995659;28;20045;-82
2023/09/22 03:05:22;;;;;;;23.48;17.25;;;14.20;99.90;;;;;;4996052;28;20417;-81
2023/09/22 03:07:48;;;;;;;24.77;17.13;;;14.20;99.90;;;;;;4995904;28;20038;-81
2023/09/22 03:10:14;;;;;;;22.10;16.20;;;14.10;99.90;;;;;;4996804;28;20119;-80
2023/09/22 03:12:39;;;;;;;26.73;17.48;;;14.00;99.90;;;;;;5001262;28;20076;-80
2023/09/22 03:15:09;;;;;;;23.65;16.42;;;13.90;99.90;;;;;;4995914;28;20038;-82
2023/09/22 03:17:35;;;;;;;26.55;17.20;;;13.90;99.90;;;;;;4995098;28;20096;-82
2023/09/22 03:20:01;;;;;;;22.67;16.40;;;13.80;99.90;;;;;;4996773;28;20033;-81
2023/09/22 03:22:26;;;;;;;24.48;16.05;;;13.80;99.90;;;;;;4996330;28;20060;-82
2023/09/22 03:24:52;;;;;;;22.38;15.57;;;13.80;99.90;;;;;;4995769;28;20515;-82
2023/09/22 03:27:18;;;;;;;22.10;15.02;;;13.70;99.90;;;;;;4995052;28;20088;-82
2023/09/22 03:29:43;;;;;;;24.08;15.75;;;13.70;99.90;;;;;;4994880;28;20461;-82
2023/09/22 03:32:09;;;;;;;21.63;15.07;;;13.60;99.90;;;;;;4995371;28;20139;-83
2023/09/22 03:34:35;;;;;;;24.17;15.13;;;13.60;99.90;;;;;;4994234;28;20042;-83
2023/09/22 03:37:01;;;;;;;21.38;15.38;;;13.60;99.90;;;;;;4994539;28;20497;-82
2023/09/22 03:39:28;;;;;;;21.10;14.68;;;13.60;99.90;;;;;;4994601;28;20045;-83
2023/09/22 03:41:54;;;;;;;25.52;15.05;;;13.50;99.90;;;;;;4992191;28;20041;-83
2023/09/22 03:44:20;;;;;;;23.42;14.38;;;13.50;99.90;;;;;;4993301;28;20038;-82
2023/09/22 03:46:46;;;;;;;18.92;14.57;;;13.50;99.90;;;;;;4977687;28;20038;-82
2023/09/22 03:49:12;;;;;;;20.35;14.35;;;13.50;99.90;;;;;;4994675;28;20041;-81
2023/09/22 03:51:38;;;;;;;19.90;13.10;;;13.40;99.90;;;;;;4995745;28;20037;-83
2023/09/22 03:54:04;;;;;;;20.55;14.40;;;13.40;99.90;;;;;;4975625;28;20130;-82
2023/09/22 03:56:31;;;;;;;24.00;14.07;;;13.40;99.90;;;;;;4991140;28;20437;-83
2023/09/22 03:58:57;;;;;;;19.33;12.65;;;13.40;99.90;;;;;;4978265;28;20485;-83
2023/09/22 04:01:22;;;;;;;26.05;13.77;;;13.30;99.90;;;;;;4994731;28;20064;-81
2023/09/22 04:03:48;;;;;;;19.30;13.02;;;13.30;99.90;;;;;;4978534;28;20041;-82
2023/09/22 04:06:13;;;;;;;18.35;13.18;;;13.40;99.90;;;;;;4994580;28;20073;-82
2023/09/22 04:08:39;;;;;;;18.92;12.52;;;13.30;99.90;;;;;;4976488;28;20081;-83
2023/09/22 04:11:05;;;;;;;19.95;13.40;;;13.40;99.90;;;;;;4992395;28;20590;-84
2023/09/22 04:13:31;;;;;;;18.75;12.45;;;13.40;99.90;;;;;;4994024;28;20121;-83
2023/09/22 04:16:01;;;;;;;18.27;12.52;;;13.40;99.90;;;;;;4993940;28;20112;-82
2023/09/22 04:18:29;;;;;;;19.58;13.18;;;13.40;99.90;;;;;;4993313;28;20030;-82
2023/09/22 04:20:56;;;;;;;17.65;12.82;;;13.50;99.90;;;;;;4993684;28;20401;-83
2023/09/22 04:23:24;;;;;;;21.48;13.40;;;13.50;99.90;;;;;;4995492;28;20038;-83
2023/09/22 04:25:53;;;;;;;22.25;13.23;;;13.50;99.90;;;;;;4986601;28;20048;-82
2023/09/22 04:28:23;;;;;;;20.50;12.60;;;13.50;99.90;;;;;;4993949;28;20073;-83
2023/09/22 04:30:49;;;;;;;21.10;12.35;;;13.50;99.90;;;;;;4994599;28;20097;-83
2023/09/22 04:33:15;;;;;;;18.75;12.50;;;13.60;99.90;;;;;;4991877;28;20088;-83
2023/09/22 04:35:41;;;;;;;22.15;12.93;;;13.60;99.90;;;;;;4991589;28;20042;-84
2023/09/22 04:38:08;;;;;;;20.38;13.10;;;13.60;99.90;;;;;;4993376;28;20080;-82
2023/09/22 04:40:38;;;;;;;22.65;13.80;;;13.60;99.90;;;;;;4993600;28;20049;-83
2023/09/22 04:43:07;;;;;;;20.00;13.38;;;13.70;99.90;;;;;;4969023;28;20405;-83
2023/09/22 04:45:37;;;;;;;26.58;14.98;;;13.70;99.90;;;;;;4993153;28;20042;-83
2023/09/22 04:48:04;;;;;;;22.63;14.40;;;13.70;99.90;;;;;;4978894;28;20037;-84
2023/09/22 04:50:31;;;;;;;22.50;14.68;;;13.70;99.90;;;;;;4992578;28;20116;-82
2023/09/22 04:52:57;;;;;;;19.95;14.07;;;13.70;99.90;;;;;;4992397;28;20085;-82
2023/09/22 04:55:22;;;;;;;22.67;15.07;;;13.70;99.90;;;;;;4988900;28;20034;-83
2023/09/22 04:57:48;;;;;;;25.48;15.75;;;13.70;99.90;;;;;;4993765;28;20041;-82
2023/09/22 05:00:16;;;;;;;22.67;15.32;;;13.70;99.90;;;;;;4995371;28;20038;-83
2023/09/22 05:02:43;;;;;;;28.85;16.48;;;13.70;99.90;;;;;;4981405;28;20555;-83
2023/09/22 05:05:10;;;;;;;27.35;16.17;;;13.60;99.90;;;;;;4984563;28;20041;-83
2023/09/22 05:07:36;;;;;;;25.50;16.48;;;13.60;99.90;;;;;;4999539;28;20085;-83
2023/09/22 05:10:02;;;;;;;27.95;15.43;;;13.60;99.90;;;;;;4999903;28;20072;-82
2023/09/22 05:12:30;;;;;;;26.42;16.10;;;13.60;99.90;;;;;;4998025;28;20049;-82
2023/09/22 05:14:55;;;;;;;25.65;15.75;;;13.50;99.90;;;;;;4998875;28;20052;-83
2023/09/22 05:17:22;;;;;;;25.15;15.95;;;13.50;99.90;;;;;;4999165;28;20041;-83
2023/09/22 05:19:48;;;;;;;23.23;14.70;;;13.50;99.90;;;;;;4999364;28;20042;-82
2023/09/22 05:22:13;;;;;;;29.08;16.27;;;13.40;99.90;;;;;;4997979;28;20038;-82
2023/09/22 05:24:39;;;;;;;24.70;17.00;;;13.40;99.90;;;;;;4998573;28;20049;-82
2023/09/22 05:27:04;;;;;;;22.52;15.85;;;13.30;99.90;;;;;;4983058;28;20034;-82
2023/09/22 05:29:30;;;;;;;26.77;17.38;;;13.30;99.90;;;;;;5009479;28;20100;-82
2023/09/22 05:31:56;;;;;;;25.60;17.33;;;13.20;99.90;;;;;;5016784;28;20042;-81
2023/09/22 05:34:21;;;;;;;25.92;16.13;;;13.20;99.90;;;;;;4996128;28;20494;-82
2023/09/22 05:36:49;;;;;;;27.75;18.08;;;13.20;99.90;;;;;;4979437;28;20401;-84
2023/09/22 05:39:14;;;;;;;27.98;17.05;;;13.20;99.90;;;;;;4978121;28;20039;-83
2023/09/22 05:41:40;;;;;;;27.35;17.75;;;13.20;99.90;;;;;;4999339;28;20049;-83
2023/09/22 05:44:07;;;;;;;26.35;16.63;;;13.20;99.90;;;;;;4982987;28;20070;-83
2023/09/22 05:46:34;;;;;;;26.95;17.33;;;13.20;99.90;;;;;;4999756;28;20054;-82
2023/09/22 05:49:00;;;;;;;26.85;17.67;;;13.20;99.90;;;;;;4997537;28;20060;-82
2023/09/22 05:51:26;;;;;;;26.15;18.45;;;13.20;99.90;;;;;;4997027;28;20042;-80
2023/09/22 05:53:51;;;;;;;28.63;17.77;;;13.20;99.90;;;;;;5000276;28;20048;-82
2023/09/22 05:56:17;;;;;;;26.13;17.73;;;13.20;99.90;;;;;;4985627;28;20500;-82
2023/09/22 05:58:43;;;;;;;24.70;16.90;;;13.20;99.90;;;;;;5001244;28;20518;-82
2023/09/22 06:01:13;;;;;;;29.52;18.20;;;13.20;99.90;;;;;;5000949;28;20508;-81
2023/09/22 06:03:41;;;;;;;31.02;18.25;;;13.20;99.90;;;;;;4999017;28;20042;-81
2023/09/22 06:06:15;;;;;;;29.05;18.63;;;13.30;99.90;;;;;;5001655;28;20405;-81
2023/09/22 06:08:46;;;;;;;31.40;19.05;;;13.20;99.90;;;;;;4991410;28;20046;-81
2023/09/22 06:11:13;;;;;;;30.27;19.20;;;13.20;99.90;;;;;;4996332;28;20095;-82
2023/09/22 06:13:40;;;;;;;31.38;19.27;;;13.30;99.90;;;;;;4980543;28;20137;-82
2023/09/22 06:16:06;;;;;;;29.48;19.98;;;13.30;99.90;;;;;;4998921;28;20351;-81
2023/09/22 06:18:32;;;;;;;31.88;19.63;;;13.30;99.90;;;;;;4997549;28;20057;-81
2023/09/22 06:20:59;;;;;;;32.05;20.10;;;13.30;99.90;;;;;;4999339;28;20038;-81
2023/09/22 06:23:27;;;;;;;32.42;20.05;;;13.30;99.90;;;;;;4999651;28;20048;-82
2023/09/22 06:25:56;;;;;;;29.48;18.85;;;13.30;99.90;;;;;;4983219;28;20065;-82
2023/09/22 06:28:22;;;;;;;31.30;19.23;;;13.30;99.90;;;;;;5000795;28;20065;-82
2023/09/22 06:30:50;;;;;;;29.05;18.92;;;13.30;99.90;;;;;;4983285;28;20037;-81
2023/09/22 06:33:16;;;;;;;30.40;18.80;;;13.30;99.90;;;;;;4997534;28;20038;-82
2023/09/22 06:35:43;;;;;;;30.02;19.48;;;13.30;99.90;;;;;;4977403;28;20462;-81
2023/09/22 06:38:10;;;;;;;31.90;19.92;;;13.30;99.90;;;;;;4998931;28;20461;-81
2023/09/22 06:40:36;;;;;;;33.15;20.50;;;13.30;99.90;;;;;;4992975;28;20129;-82
2023/09/22 06:43:04;;;;;;;30.30;19.90;;;13.30;99.90;;;;;;4998260;28;20133;-80
2023/09/22 06:45:32;;;;;;;31.85;20.05;;;13.30;99.90;;;;;;4998827;28;20065;-82
2023/09/22 06:47:59;;;;;;;28.92;19.00;;;13.40;99.90;;;;;;4984541;28;20045;-81
2023/09/22 06:50:29;;;;;;;29.35;18.58;;;13.30;99.90;;;;;;4998532;28;20046;-81
2023/09/22 06:52:54;;;;;;;29.60;17.92;;;13.40;99.90;;;;;;4993093;28;20045;-82
2023/09/22 06:55:20;;;;;;;27.92;18.27;;;13.40;99.90;;;;;;5004094;28;20113;-81
2023/09/22 06:57:45;;;;;;;28.42;17.33;;;13.50;99.90;;;;;;4999634;28;20042;-82
2023/09/22 07:00:16;;;;;;;32.15;18.23;;;13.50;99.90;;;;;;4995704;28;20390;-81
2023/09/22 07:02:44;;;;;;;26.05;16.40;;;13.60;99.90;;;;;;4996126;28;20409;-81
2023/09/22 07:05:10;;;;;;;26.17;17.05;;;13.70;99.90;;;;;;4998701;28;20113;-82
2023/09/22 07:07:37;;;;;;;26.98;17.17;;;13.70;99.90;;;;;;4997663;28;20046;-82
2023/09/22 07:10:07;;;;;;;25.63;15.35;;;13.70;99.90;;;;;;4995628;28;20064;-82
2023/09/22 07:12:32;;;;;;;25.45;15.50;;;13.80;99.90;;;;;;4997675;28;20394;-81
2023/09/22 07:14:58;;;;;;;26.83;16.17;;;13.80;99.90;;;;;;4997047;28;20038;-82
2023/09/22 07:17:24;;;;;;;21.80;14.25;;;13.80;99.90;;;;;;4998251;28;20577;-81
2023/09/22 07:19:49;;;;;;;22.48;14.13;;;13.80;99.90;;;;;;5003778;28;20049;-80
2023/09/22 07:22:15;;;;;;;22.77;13.90;;;13.80;99.90;;;;;;5000192;28;20110;-81
2023/09/22 07:24:40;;;;;;;21.45;13.13;;;13.80;99.90;;;;;;4993904;28;20088;-81
2023/09/22 07:27:06;;;;;;;21.00;13.82;;;13.80;99.90;;;;;;4992319;28;20042;-80
2023/09/22 07:29:32;;;;;;;20.08;13.18;;;13.80;99.90;;;;;;4977540;28;20386;-82
2023/09/22 07:31:57;;;;;;;19.67;12.80;;;13.80;99.90;;;;;;4976953;28;20133;-81
2023/09/22 07:34:23;;;;;;;20.73;13.30;;;13.80;99.90;;;;;;5014739;28;20511;-82
2023/09/22 07:36:49;;;;;;;18.75;12.23;;;13.80;99.90;;;;;;4980156;28;20541;-81
2023/09/22 07:39:14;;;;;;;19.65;13.07;;;13.80;99.90;;;;;;4998922;28;20065;-82
2023/09/22 07:41:40;;;;;;;19.90;12.52;;;13.80;99.90;;;;;;4999402;28;20041;-81
2023/09/22 07:44:05;;;;;;;20.38;13.35;;;13.90;99.90;;;;;;4996786;28;20077;-82
2023/09/22 07:46:31;;;;;;;19.35;12.80;;;13.90;99.90;;;;;;5003276;28;20046;-82
2023/09/22 07:48:56;;;;;;;19.35;12.98;;;13.80;99.90;;;;;;4998096;28;20065;-81
2023/09/22 07:51:22;;;;;;;21.55;13.88;;;13.90;99.90;;;;;;4981238;28;20046;-81
2023/09/22 07:53:48;;;;;;;20.60;12.05;;;13.90;99.90;;;;;;4996045;28;20117;-83
2023/09/22 07:56:16;;;;;;;21.23;12.95;;;13.80;99.90;;;;;;4981875;28;20544;-82
2023/09/22 07:58:41;;;;;;;19.90;13.13;;;13.90;99.90;;;;;;4983120;28;20045;-82
2023/09/22 08:01:17;;;;;;;23.25;12.80;;;13.90;99.90;;;;;;4996763;28;20026;-82
2023/09/22 08:03:45;;;;;;;19.40;11.52;;;13.90;99.90;;;;;;4994798;28;20108;-83
2023/09/22 08:06:12;;;;;;;18.30;11.63;;;13.90;99.90;;;;;;4996034;28;20038;-83
2023/09/22 08:08:38;;;;;;;18.55;11.45;;;13.90;99.90;;;;;;4979210;28;20112;-84
2023/09/22 08:11:04;;;;;;;17.35;12.00;;;13.90;99.90;;;;;;4996702;28;20053;-84
2023/09/22 08:13:33;;;;;;;17.08;11.23;;;14.00;99.90;;;;;;4995902;28;20105;-82
2023/09/22 08:15:59;;;;;;;17.83;11.18;;;14.10;99.90;;;;;;5011869;28;20055;-83
2023/09/22 08:18:26;;;;;;;18.95;11.85;;;14.20;99.90;;;;;;4994591;28;20112;-83
2023/09/22 08:20:51;;;;;;;16.10;11.30;;;14.40;99.90;;;;;;4993379;28;20034;-83
2023/09/22 08:23:17;;;;;;;14.27;10.60;;;14.50;99.90;;;;;;4979361;28;20042;-84
2023/09/22 08:25:46;;;;;;;15.55;10.75;;;14.60;99.90;;;;;;4994984;28;20075;-82
2023/09/22 08:28:14;;;;;;;19.77;10.40;;;14.60;99.90;;;;;;4994619;28;20521;-84
2023/09/22 08:30:40;;;;;;;15.40;10.40;;;14.60;99.90;;;;;;4996086;28;20052;-82
2023/09/22 08:33:07;;;;;;;15.10;10.35;;;14.60;99.90;;;;;;4994920;28;20117;-82
2023/09/22 08:35:33;;;;;;;13.50;10.57;;;14.60;99.90;;;;;;4996474;28;20075;-82
2023/09/22 08:38:00;;;;;;;12.90;10.13;;;14.50;99.90;;;;;;4996625;28;20493;-83
2023/09/22 08:40:26;;;;;;;14.60;10.02;;;14.50;99.90;;;;;;4998036;28;20089;-82
2023/09/22 08:42:55;;;;;;;16.88;9.68;;;14.50;99.90;;;;;;4996648;28;20108;-82
2023/09/22 08:45:21;;;;;;;15.55;10.18;;;14.50;99.90;;;;;;4976313;28;20445;-83
2023/09/22 08:47:47;;;;;;;13.30;9.27;;;14.50;99.90;;;;;;4985805;28;20049;-81
2023/09/22 08:50:15;;;;;;;15.05;9.68;;;14.50;99.90;;;;;;4981376;28;20065;-81
2023/09/22 08:52:42;;;;;;;13.35;8.95;;;14.60;99.90;;;;;;4994804;28;20076;-82
2023/09/22 08:55:16;;;;;;;14.35;9.38;;;14.70;99.90;;;;;;4997444;28;20049;-82
2023/09/22 08:57:44;;;;;;;11.80;8.20;;;14.80;99.90;;;;;;4998869;28;20046;-82
2023/09/22 09:00:31;;;;;;;14.00;8.48;;;14.90;99.90;;;;;;4994908;28;20037;-82
2023/09/22 09:03:01;;;;;;;12.00;7.47;;;15.00;99.90;;;;;;4995421;28;20137;-82
2023/09/22 09:05:29;;;;;;;9.55;7.05;;;15.20;99.90;;;;;;4993387;28;20099;-83
2023/09/22 09:08:09;;;;;;;10.10;6.50;;;15.20;99.90;;;;;;4987550;28;20069;-79
2023/09/22 09:10:35;;;;;;;7.47;5.78;;;15.20;99.90;;;;;;4977926;28;20489;-84
2023/09/22 09:13:03;;;;;;;9.02;6.47;;;15.20;99.90;;;;;;4993847;28;20073;-83
2023/09/22 09:15:30;;;;;;;10.60;6.10;;;15.20;99.90;;;;;;4988836;28;20038;-79
2023/09/22 09:18:03;;;;;;;9.25;5.85;;;15.20;99.90;;;;;;4977568;28;20034;-83
2023/09/22 09:20:40;;;;;;;7.80;6.20;;;15.30;99.90;;;;;;4993917;28;20072;-84
2023/09/22 09:23:16;;;;;;;7.80;5.45;;;15.30;99.90;;;;;;4984507;28;20049;-82
2023/09/22 09:25:54;;;;;;;7.82;5.25;;;15.40;99.90;;;;;;4977128;28;20097;-82
2023/09/22 09:28:20;;;;;;;8.10;4.63;;;15.60;99.90;;;;;;4994050;28;20072;-82
2023/09/22 09:30:48;;;;;;;7.97;4.80;;;15.90;99.90;;;;;;4986266;28;20045;-80
2023/09/22 09:33:14;;;;;;;5.30;4.47;;;16.00;99.90;;;;;;4995442;28;20185;-82
2023/09/22 09:35:41;;;;;;;6.10;4.57;;;16.10;99.90;;;;;;4979971;28;20404;-82
2023/09/22 09:38:08;;;;;;;7.10;4.20;;;16.10;99.90;;;;;;4978357;28;20065;-83
2023/09/22 09:40:38;;;;;;;7.10;4.18;;;16.20;99.90;;;;;;4991869;28;20044;-83
2023/09/22 09:43:10;;;;;;;6.85;3.72;;;16.30;99.90;;;;;;4986690;28;20068;-82
2023/09/22 09:45:43;;;;;;;4.82;3.72;;;16.40;99.90;;;;;;4990197;28;20111;-82
2023/09/22 09:48:14;;;;;;;6.40;3.75;;;16.30;99.90;;;;;;4991541;28;20046;-83
2023/09/22 09:50:42;;;;;;;4.13;3.10;;;16.40;99.90;;;;;;4994825;28;20048;-82
2023/09/22 09:53:20;;;;;;;5.45;2.80;;;16.50;99.90;;;;;;4996674;28;20513;-82
2023/09/22 09:55:47;;;;;;;3.78;2.20;;;16.60;99.90;;;;;;4994401;28;20567;-82
2023/09/22 09:58:14;;;;;;;3.35;2.50;;;16.70;99.90;;;;;;5001319;28;20105;-83
2023/09/22 10:00:39;;;;;;;4.45;1.80;;;17.00;99.90;;;;;;4987534;28;20037;-80
2023/09/22 10:03:08;;;;;;;4.53;1.92;;;16.90;99.90;;;;;;5000589;28;20045;-83
2023/09/22 10:05:34;;;;;;;3.17;1.75;;;16.70;99.90;;;;;;5007059;28;20077;-83
2023/09/22 10:08:00;;;;;;;2.85;1.70;;;16.50;99.90;;;;;;4978557;28;20050;-84
2023/09/22 10:10:27;;;;;;;4.25;1.60;;;16.40;99.90;;;;;;4997789;28;20034;-82
2023/09/22 10:12:53;;;;;;;2.55;1.70;;;16.40;99.90;;;;;;4997382;28;20045;-81
2023/09/22 10:15:52;;;;;;;3.35;1.90;;;16.40;99.90;;;;;;4999312;28;20668;-80
2023/09/22 10:18:18;;;;;;;3.10;2.08;;;16.40;99.90;;;;;;4976977;28;20039;-81
2023/09/22 10:20:45;;;;;;;5.35;2.15;;;16.30;99.90;;;;;;5000477;28;20044;-82
2023/09/22 10:23:24;;;;;;;3.63;2.00;;;16.40;99.90;;;;;;4980791;28;20049;-82
2023/09/22 10:26:04;;;;;;;2.45;1.77;;;16.60;99.90;;;;;;4994353;28;20063;-82
2023/09/22 10:28:30;;;;;;;4.00;1.65;;;16.80;99.90;;;;;;5005856;28;20416;-82
2023/09/22 10:30:59;;;;;;;2.78;1.95;;;17.00;99.90;;;;;;4997712;28;20048;-79
2023/09/22 10:33:29;;;;;;;2.97;1.50;;;17.10;99.90;;;;;;4999014;28;20117;-82
2023/09/22 10:35:55;;;;;;;3.08;1.50;;;17.10;99.90;;;;;;4999147;28;20069;-82
2023/09/22 10:38:21;;;;;;;2.75;1.77;;;17.40;99.90;;;;;;4995502;28;20073;-81
2023/09/22 10:41:02;;;;;;;2.92;1.30;;;17.60;99.90;;;;;;4997333;28;20033;-80
2023/09/22 10:43:32;;;;;;;2.72;1.40;;;17.60;99.90;;;;;;4984577;28;20092;-80
2023/09/22 10:45:59;;;;;;;2.30;1.35;;;17.60;99.90;;;;;;4980592;28;20541;-80
2023/09/22 10:48:30;;;;;;;2.80;1.30;;;17.50;99.90;;;;;;5002194;28;20045;-79
2023/09/22 10:50:56;;;;;;;3.50;1.60;;;17.30;99.90;;;;;;4997667;28;20460;-80
2023/09/22 10:53:22;;;;;;;3.00;1.70;;;17.40;99.90;;;;;;4994819;28;20041;-79
2023/09/22 10:55:47;;;;;;;7.72;1.63;;;17.50;99.90;;;;;;4995327;28;20034;-77
2023/09/22 10:58:21;;;;;;;3.63;2.05;;;17.60;99.90;;;;;;5007904;28;20086;-79
2023/09/22 11:01:07;;;;;;;2.83;1.70;;;17.50;99.90;;;;;;4998460;28;20056;-78
2023/09/22 11:03:33;;;;;;;4.65;1.73;;;17.50;99.90;;;;;;5001502;28;20046;-79
2023/09/22 11:06:00;;;;;;;2.88;1.83;;;17.30;99.90;;;;;;5004634;28;20440;-80
2023/09/22 11:08:26;;;;;;;1.63;1.50;;;17.20;99.90;;;;;;4998632;28;20497;-79
2023/09/22 11:10:53;;;;;;;3.83;2.00;;;17.10;99.90;;;;;;4996967;28;20038;-80
2023/09/22 11:13:21;;;;;;;2.63;1.83;;;17.10;99.90;;;;;;4998650;28;20042;-80
2023/09/22 11:15:57;;;;;;;4.55;1.80;;;17.10;99.90;;;;;;4995187;28;20045;-82
2023/09/22 11:18:26;;;;;;;3.47;1.80;;;17.10;99.90;;;;;;4997864;28;20041;-81
2023/09/22 11:20:59;;;;;;;2.90;1.90;;;17.10;99.90;;;;;;4993793;28;20046;-81
2023/09/22 11:23:28;;;;;;;2.97;2.13;;;17.30;99.90;;;;;;4989897;28;20084;-81
2023/09/22 11:25:59;;;;;;;3.17;2.10;;;17.40;99.90;;;;;;4989950;28;20042;-81
2023/09/22 11:28:26;;;;;;;2.88;1.83;;;17.30;99.90;;;;;;4992510;28;20042;-79
2023/09/22 11:30:53;;;;;;;3.45;2.03;;;17.30;99.90;;;;;;4993562;28;20069;-80
2023/09/22 11:33:19;;;;;;;2.30;1.75;;;17.40;99.90;;;;;;5009266;28;20073;-81
2023/09/22 11:35:45;;;;;;;2.50;1.70;;;17.40;99.90;;;;;;4993921;28;20038;-80
2023/09/22 11:38:31;;;;;;;4.45;1.95;;;17.40;99.90;;;;;;4995796;28;20038;-81
2023/09/22 11:41:17;;;;;;;2.30;1.50;;;17.50;99.90;;;;;;4993955;28;20038;-81
2023/09/22 11:43:48;;;;;;;2.47;1.70;;;17.60;99.90;;;;;;4994191;28;20125;-81
2023/09/22 11:46:15;;;;;;;2.13;1.70;;;17.80;99.90;;;;;;4995418;28;20046;-81
2023/09/22 11:49:12;;;;;;;2.80;1.90;;;17.90;99.90;;;;;;4998592;28;20034;-81
2023/09/22 11:51:45;;;;;;;3.03;1.52;;;17.80;99.90;;;;;;4961510;28;20403;-81
2023/09/22 11:54:13;;;;;;;2.30;1.60;;;17.80;99.90;;;;;;4994369;28;20050;-80
2023/09/22 11:56:40;;;;;;;2.05;1.20;;;18.00;99.90;;;;;;4995748;28;20052;-81
2023/09/22 11:59:06;;;;;;;3.95;2.10;;;18.00;99.90;;;;;;4994636;28;20050;-81
2023/09/22 12:01:32;;;;;;;3.20;1.90;;;17.90;99.90;;;;;;5000078;28;20040;-80
2023/09/22 12:03:58;;;;;;;1.67;1.40;;;17.80;99.90;;;;;;4992931;28;20046;-80
2023/09/22 12:06:24;;;;;;;2.08;1.55;;;17.70;99.90;;;;;;4993978;28;20045;-79
2023/09/22 12:08:49;;;;;;;3.55;1.55;;;17.50;99.90;;;;;;4992466;28;20038;-81
2023/09/22 12:11:15;;;;;;;2.40;1.90;;;17.40;99.90;;;;;;4998367;28;20072;-79
2023/09/22 12:13:40;;;;;;;2.45;1.60;;;17.40;99.90;;;;;;4996189;28;20042;-81
2023/09/22 12:16:06;;;;;;;2.88;1.88;;;17.30;99.90;;;;;;4992129;28;20041;-79
2023/09/22 12:18:32;;;;;;;3.55;1.73;;;17.30;99.90;;;;;;4994897;28;20511;-79
2023/09/22 12:20:57;;;;;;;4.78;1.80;;;17.30;99.90;;;;;;5002734;28;20045;-79
2023/09/22 12:23:23;;;;;;;3.15;1.85;;;17.30;99.90;;;;;;4994442;28;20042;-80
2023/09/22 12:25:52;;;;;;;2.60;1.60;;;17.30;99.90;;;;;;4993730;28;20497;-81
2023/09/22 12:28:17;;;;;;;2.13;1.70;;;17.40;99.90;;;;;;4991716;28;20050;-79
2023/09/22 12:30:43;;;;;;;2.15;1.60;;;17.50;99.90;;;;;;4990163;28;20048;-79
2023/09/22 12:33:09;;;;;;;3.20;1.65;;;17.50;99.90;;;;;;4992270;28;20042;-80
2023/09/22 12:35:35;;;;;;;3.15;1.50;;;17.50;99.90;;;;;;4993200;28;20029;-80
2023/09/22 12:38:00;;;;;;;5.10;1.30;;;17.50;99.90;;;;;;4991459;28;20454;-80